Time;durP1;ratioP1;P1;durP2;ratioP2;P2;SDS_P1;SDS_P2;PMS_P1;PMS_P2;Temp;Humidity;BMP_temperature;BMP_pressure;BME280_temperature;BME280_humidity;BME280_pressure;Samples;Min_cycle;Max_cycle;Signal;HPM_P1;HPM_P2
2021/03/21 00:01:17;;;;;;;43.28;15.48;;;;;;;17.91;12.55;98607.34;5058738;28;20504;-85
2021/03/21 00:03:44;;;;;;;44.22;17.13;;;;;;;18.17;12.66;98600.88;5079118;28;20025;-85
2021/03/21 00:06:10;;;;;;;36.38;14.45;;;;;;;18.33;12.18;98597.84;5086985;28;20044;-85
2021/03/21 00:08:36;;;;;;;45.20;16.35;;;;;;;18.43;12.53;98597.16;5083497;28;20030;-85
2021/03/21 00:11:05;;;;;;;35.95;14.82;;;;;;;18.40;12.56;98592.34;5067142;28;20067;-85
2021/03/21 00:13:31;;;;;;;49.63;16.60;;;;;;;18.21;12.60;98585.03;5096343;28;20032;-85
2021/03/21 00:15:58;;;;;;;50.03;16.08;;;;;;;17.67;12.88;98587.59;5093317;28;20059;-85
2021/03/21 00:18:28;;;;;;;52.08;17.13;;;;;;;17.35;13.36;98581.63;5087395;28;20024;-85
2021/03/21 00:20:55;;;;;;;43.35;16.77;;;;;;;17.58;13.14;98578.78;5094078;28;20051;-85
2021/03/21 00:23:21;;;;;;;45.97;18.35;;;;;;;17.82;12.72;98578.28;5068825;28;20032;-85
2021/03/21 00:25:48;;;;;;;40.67;14.30;;;;;;;18.02;12.86;98578.91;5080233;28;20040;-86
2021/03/21 00:28:17;;;;;;;44.85;15.60;;;;;;;18.23;12.48;98576.28;5092421;28;20032;-86
2021/03/21 00:30:46;;;;;;;48.55;18.45;;;;;;;18.11;12.66;98577.38;5091922;28;20026;-85
2021/03/21 00:33:14;;;;;;;43.03;16.33;;;;;;;17.94;13.10;98567.72;5082037;28;20031;-86
2021/03/21 00:35:40;;;;;;;36.80;15.00;;;;;;;17.99;13.10;98568.53;5068725;28;20031;-86
2021/03/21 00:38:18;;;;;;;44.80;16.30;;;;;;;17.30;13.07;98556.97;5083833;28;20498;-86
2021/03/21 00:40:44;;;;;;;42.83;15.18;;;;;;;16.94;13.33;98557.69;5078638;28;20035;-87
2021/03/21 00:43:10;;;;;;;47.15;15.65;;;;;;;16.92;13.37;98552.50;5079859;28;20025;-86
2021/03/21 00:45:36;;;;;;;46.83;17.08;;;;;;;17.15;13.19;98550.44;5081334;28;20466;-86
2021/03/21 00:48:03;;;;;;;39.08;14.77;;;;;;;17.25;13.21;98544.25;5094292;28;20049;-86
2021/03/21 00:50:33;;;;;;;49.58;16.65;;;;;;;17.06;13.31;98538.84;5072002;28;20028;-86
2021/03/21 00:53:00;;;;;;;42.20;15.50;;;;;;;17.13;13.64;98541.69;5078117;28;20039;-87
2021/03/21 00:55:26;;;;;;;45.58;15.68;;;;;;;17.41;13.30;98546.03;5084633;28;20034;-86
2021/03/21 00:57:52;;;;;;;39.28;14.10;;;;;;;17.27;13.20;98536.34;5092661;28;20101;-86
2021/03/21 01:00:27;;;;;;;51.60;16.58;;;;;;;17.29;13.12;98531.19;5056693;28;20105;-86
2021/03/21 01:02:54;;;;;;;35.92;14.57;;;;;;;17.27;12.93;98533.56;5078393;28;20036;-86
2021/03/21 01:05:27;;;;;;;42.50;16.40;;;;;;;17.29;12.85;98525.66;5063281;28;20029;-86
2021/03/21 01:07:55;;;;;;;52.45;16.42;;;;;;;17.62;12.79;98513.00;5080794;28;20028;-86
2021/03/21 01:10:30;;;;;;;46.10;16.58;;;;;;;17.88;12.40;98515.63;5088200;28;20021;-86
2021/03/21 01:12:58;;;;;;;43.53;16.63;;;;;;;17.98;12.32;98514.94;5068600;28;20031;-86
2021/03/21 01:15:26;;;;;;;36.88;15.02;;;;;;;18.05;12.51;98495.56;5102619;28;20044;-85
2021/03/21 01:17:52;;;;;;;44.60;14.98;;;;;;;18.07;12.57;98500.72;5099392;28;20122;-85
2021/03/21 01:20:21;;;;;;;34.35;13.90;;;;;;;18.11;12.56;98494.00;5104921;28;20440;-85
2021/03/21 01:22:48;;;;;;;48.55;17.02;;;;;;;18.16;12.70;98487.31;5099789;28;20456;-85
2021/03/21 01:25:18;;;;;;;42.85;15.32;;;;;;;17.72;12.92;98482.56;5097620;28;20077;-85
2021/03/21 01:27:44;;;;;;;43.45;14.57;;;;;;;17.27;12.85;98485.59;5081623;28;20031;-85
2021/03/21 01:30:12;;;;;;;39.35;14.82;;;;;;;17.46;13.09;98481.84;5090817;28;20077;-85
2021/03/21 01:32:38;;;;;;;31.00;12.80;;;;;;;17.59;12.78;98480.44;5098933;28;20113;-84
2021/03/21 01:35:06;;;;;;;28.30;11.90;;;;;;;17.43;12.96;98479.84;5085901;28;20082;-85
2021/03/21 01:37:32;;;;;;;35.17;13.40;;;;;;;17.16;13.23;98474.38;5084329;28;20039;-85
2021/03/21 01:39:58;;;;;;;40.42;14.80;;;;;;;16.96;13.42;98474.91;5080773;28;20032;-85
2021/03/21 01:42:33;;;;;;;43.30;14.77;;;;;;;16.76;13.50;98474.25;5054251;28;20530;-85
2021/03/21 01:44:59;;;;;;;38.53;13.50;;;;;;;16.73;13.56;98475.00;5062189;28;20102;-85
2021/03/21 01:47:36;;;;;;;34.20;12.05;;;;;;;16.73;13.32;98475.00;5069355;28;20443;-85
2021/03/21 01:50:22;;;;;;;28.33;11.90;;;;;;;16.83;13.45;98465.22;5087274;28;20036;-85
2021/03/21 01:52:49;;;;;;;33.22;12.40;;;;;;;17.11;13.14;98465.56;5086177;28;20495;-84
2021/03/21 01:55:16;;;;;;;32.67;12.85;;;;;;;17.44;13.13;98465.56;5079501;28;20035;-85
2021/03/21 01:57:43;;;;;;;36.63;13.45;;;;;;;17.60;13.11;98460.59;5083925;28;20439;-85
2021/03/21 02:00:11;;;;;;;28.95;11.73;;;;;;;17.79;12.46;98451.28;5062700;28;20028;-85
2021/03/21 02:02:38;;;;;;;34.70;12.77;;;;;;;17.82;12.35;98454.09;5105078;28;20032;-85
2021/03/21 02:05:05;;;;;;;33.33;12.52;;;;;;;17.86;12.63;98454.91;5093148;28;20084;-85
2021/03/21 02:07:50;;;;;;;36.58;13.32;;;;;;;17.68;12.62;98447.59;5089718;28;20030;-85
2021/03/21 02:10:49;;;;;;;31.10;12.40;;;;;;;17.44;12.85;98448.09;5088384;28;20511;-85
2021/03/21 02:13:29;;;;;;;25.65;10.50;;;;;;;17.41;12.83;98435.00;5079446;28;20036;-84
2021/03/21 02:16:12;;;;;;;30.77;11.88;;;;;;;17.48;12.61;98429.53;5093898;28;20028;-84
2021/03/21 02:19:11;;;;;;;30.85;10.82;;;;;;;17.27;12.95;98418.97;5100423;28;20107;-84
2021/03/21 02:21:48;;;;;;;33.20;12.80;;;;;;;17.05;13.09;98406.06;5054059;28;20408;-84
2021/03/21 02:24:48;;;;;;;26.25;11.65;;;;;;;17.20;13.04;98410.59;5078965;28;20036;-84
2021/03/21 02:27:29;;;;;;;33.53;11.73;;;;;;;17.29;13.15;98406.31;5104406;28;20506;-85
2021/03/21 02:30:01;;;;;;;37.45;11.98;;;;;;;17.43;13.04;98397.38;5084511;28;20526;-84
2021/03/21 02:32:34;;;;;;;35.15;12.18;;;;;;;17.39;13.06;98398.50;5089706;28;20037;-85
2021/03/21 02:35:06;;;;;;;31.50;11.13;;;;;;;16.87;13.11;98394.78;5071000;28;20067;-85
2021/03/21 02:37:42;;;;;;;31.90;11.88;;;;;;;16.50;13.36;98386.34;5103470;28;20024;-85
2021/03/21 02:40:20;;;;;;;29.27;12.15;;;;;;;16.78;13.49;98387.94;5104258;28;20031;-85
2021/03/21 02:42:57;;;;;;;28.90;11.00;;;;;;;17.00;13.28;98375.91;5104382;28;20036;-85
2021/03/21 02:45:27;;;;;;;29.77;12.38;;;;;;;17.10;13.11;98373.25;5103940;28;20043;-85
2021/03/21 02:48:00;;;;;;;39.58;12.32;;;;;;;17.18;13.26;98374.09;5091583;28;20035;-85
2021/03/21 02:50:44;;;;;;;33.90;12.73;;;;;;;17.17;12.86;98367.78;5071959;28;20035;-85
2021/03/21 02:53:27;;;;;;;33.35;12.32;;;;;;;17.48;12.83;98363.69;5091034;28;20036;-85
2021/03/21 02:55:58;;;;;;;34.00;12.13;;;;;;;17.42;12.73;98358.88;5095610;28;20044;-85
2021/03/21 02:58:54;;;;;;;36.35;14.05;;;;;;;17.53;12.74;98351.47;5102731;28;20021;-85
2021/03/21 03:01:26;;;;;;;31.48;12.63;;;;;;;17.77;12.17;98345.34;5101516;28;20036;-85
2021/03/21 03:03:57;;;;;;;31.55;12.77;;;;;;;17.88;12.31;98337.88;5096647;28;20060;-85
2021/03/21 03:06:54;;;;;;;29.30;10.73;;;;;;;17.61;12.60;98328.94;5078370;28;20459;-85
2021/03/21 03:09:25;;;;;;;26.42;11.40;;;;;;;17.66;12.84;98333.34;5102787;28;20036;-85
2021/03/21 03:11:58;;;;;;;25.55;10.02;;;;;;;17.43;12.72;98333.53;5085229;28;20043;-85
2021/03/21 03:14:33;;;;;;;29.58;10.85;;;;;;;17.25;12.98;98329.78;5106823;28;20039;-85
2021/03/21 03:17:25;;;;;;;38.03;12.88;;;;;;;16.97;13.00;98321.97;5104426;28;20390;-85
2021/03/21 03:19:59;;;;;;;34.00;11.68;;;;;;;16.85;13.06;98313.16;5086211;28;20059;-84
2021/03/21 03:22:51;;;;;;;31.10;12.63;;;;;;;16.62;13.38;98316.03;5076568;28;20042;-85
2021/03/21 03:25:39;;;;;;;36.03;12.60;;;;;;;16.66;13.21;98311.34;5063953;28;20108;-85
2021/03/21 03:28:33;;;;;;;34.67;13.75;;;;;;;16.93;12.72;98304.50;5098875;28;20060;-84
2021/03/21 03:31:01;;;;;;;29.15;12.23;;;;;;;17.24;12.74;98289.34;5087229;28;20039;-84
2021/03/21 03:33:28;;;;;;;33.67;11.57;;;;;;;17.42;12.32;98293.06;5109387;28;20036;-85
2021/03/21 03:35:55;;;;;;;30.85;11.93;;;;;;;16.96;13.04;98278.00;5098483;28;20028;-85
2021/03/21 03:38:22;;;;;;;30.05;11.52;;;;;;;16.96;13.07;98270.47;5109663;28;20483;-85
2021/03/21 03:40:52;;;;;;;27.92;11.25;;;;;;;17.07;12.58;98267.78;5064650;28;20040;-85
2021/03/21 03:43:42;;;;;;;41.83;13.27;;;;;;;16.89;12.87;98272.38;5090718;28;20039;-85
2021/03/21 03:46:29;;;;;;;31.50;12.00;;;;;;;17.06;12.81;98264.22;5079905;28;20450;-84
2021/03/21 03:49:16;;;;;;;30.50;11.13;;;;;;;17.21;12.56;98251.28;5105346;28;20028;-82
2021/03/21 03:52:28;;;;;;;29.67;11.30;;;;;;;17.06;12.53;98241.25;5107489;28;20036;-84
2021/03/21 03:55:20;;;;;;;33.28;11.35;;;;;;;17.22;12.41;98244.56;5089283;28;20031;-84
2021/03/21 03:57:54;;;;;;;30.05;11.40;;;;;;;17.00;12.71;98235.25;5065131;28;20052;-84
2021/03/21 04:00:39;;;;;;;24.17;10.13;;;;;;;16.87;12.76;98233.94;5098824;28;20028;-83
2021/03/21 04:03:43;;;;;;;29.00;10.70;;;;;;;16.73;12.78;98236.59;5096547;28;20020;-83
2021/03/21 04:06:17;;;;;;;23.00;8.57;;;;;;;16.40;13.07;98223.53;5061015;28;20093;-83
2021/03/21 04:08:56;;;;;;;26.17;11.02;;;;;;;16.78;12.81;98219.56;5084434;28;20365;-83
2021/03/21 04:11:43;;;;;;;24.83;9.05;;;;;;;17.11;12.31;98218.69;5103447;28;20059;-83
2021/03/21 04:14:18;;;;;;;26.92;8.90;;;;;;;17.31;12.31;98219.25;5072648;28;20116;-83
2021/03/21 04:17:16;;;;;;;20.83;8.70;;;;;;;17.41;12.12;98212.97;5077759;28;20085;-83
2021/03/21 04:19:52;;;;;;;21.98;8.48;;;;;;;17.55;11.94;98205.56;5096515;28;20542;-83
2021/03/21 04:22:29;;;;;;;20.88;8.10;;;;;;;17.30;12.28;98199.00;5096966;28;20035;-83
2021/03/21 04:25:20;;;;;;;26.77;9.23;;;;;;;17.02;12.60;98194.06;5098481;28;20050;-83
2021/03/21 04:28:00;;;;;;;24.17;9.40;;;;;;;17.23;12.22;98191.44;5095781;28;20028;-83
2021/03/21 04:30:43;;;;;;;20.30;9.25;;;;;;;17.21;12.16;98193.00;5105134;28;20487;-83
2021/03/21 04:33:14;;;;;;;20.83;8.65;;;;;;;17.34;12.06;98187.97;5098380;28;20479;-83
2021/03/21 04:35:46;;;;;;;20.35;8.38;;;;;;;17.45;11.96;98186.84;5101728;28;20035;-83
2021/03/21 04:38:29;;;;;;;18.92;7.53;;;;;;;17.41;11.84;98190.78;5075570;28;20078;-83
2021/03/21 04:40:57;;;;;;;20.17;8.60;;;;;;;17.56;11.64;98186.94;5105626;28;20040;-83
2021/03/21 04:43:32;;;;;;;21.15;8.98;;;;;;;17.54;11.60;98183.75;5103325;28;20026;-84
2021/03/21 04:46:08;;;;;;;23.35;8.60;;;;;;;17.32;11.93;98184.78;5107559;28;20657;-83
2021/03/21 04:48:34;;;;;;;22.33;9.85;;;;;;;17.50;11.79;98177.34;5097539;28;20047;-83
2021/03/21 04:51:07;;;;;;;28.95;11.23;;;;;;;17.45;11.86;98186.03;5096580;28;20103;-83
2021/03/21 04:53:56;;;;;;;29.63;11.68;;;;;;;17.58;11.67;98173.44;5093850;28;20544;-83
2021/03/21 04:56:37;;;;;;;27.92;11.93;;;;;;;17.71;11.62;98166.41;5097969;28;20407;-83
2021/03/21 04:59:13;;;;;;;28.17;11.73;;;;;;;17.75;11.73;98165.22;5095951;28;20035;-83
2021/03/21 05:01:43;;;;;;;23.00;9.82;;;;;;;17.81;11.60;98160.06;5100266;28;20020;-83
2021/03/21 05:04:23;;;;;;;27.85;10.82;;;;;;;17.94;11.59;98153.00;5091538;28;20032;-83
2021/03/21 05:07:05;;;;;;;36.95;13.65;;;;;;;18.09;11.63;98151.84;5078755;28;20040;-83
2021/03/21 05:09:47;;;;;;;38.00;13.85;;;;;;;18.21;11.44;98142.38;5090812;28;20028;-83
2021/03/21 05:12:26;;;;;;;21.70;9.10;;;;;;;18.33;11.60;98133.66;5092249;28;20058;-83
2021/03/21 05:15:13;;;;;;;19.88;8.45;;;;;;;18.33;11.42;98130.88;5082338;28;20059;-84
2021/03/21 05:18:12;;;;;;;18.77;7.88;;;;;;;18.43;11.66;98130.91;5098531;28;20020;-83
2021/03/21 05:21:01;;;;;;;19.90;8.18;;;;;;;18.50;11.60;98142.06;5090500;28;20491;-83
2021/03/21 05:23:34;;;;;;;23.35;10.43;;;;;;;18.72;11.59;98134.53;5095802;28;20036;-83
2021/03/21 05:26:16;;;;;;;29.88;11.65;;;;;;;18.85;11.49;98135.75;5096355;28;20042;-82
2021/03/21 05:28:48;;;;;;;25.35;9.35;;;;;;;18.85;11.53;98123.81;5097770;28;20107;-82
2021/03/21 05:31:15;;;;;;;22.92;9.30;;;;;;;19.08;11.48;98126.97;5093553;28;20039;-82
2021/03/21 05:33:43;;;;;;;22.73;6.75;;;;;;;19.11;11.39;98117.84;5098549;28;20031;-82
2021/03/21 05:36:37;;;;;;;11.65;4.68;;;;;;;18.51;11.96;98115.84;5096047;28;20115;-83
2021/03/21 05:39:21;;;;;;;14.30;5.72;;;;;;;18.19;12.27;98120.53;5086722;28;20032;-83
2021/03/21 05:42:22;;;;;;;15.15;5.97;;;;;;;18.59;11.70;98105.53;5090876;28;20539;-83
2021/03/21 05:45:17;;;;;;;12.10;4.30;;;;;;;18.85;11.73;98107.13;5088365;28;20062;-82
2021/03/21 05:47:56;;;;;;;7.85;3.40;;;;;;;18.45;11.98;98092.41;5094248;28;20040;-83
2021/03/21 05:51:04;;;;;;;8.45;3.60;;;;;;;17.88;12.64;98090.66;5077302;28;20167;-83
2021/03/21 05:54:06;;;;;;;9.85;3.72;;;;;;;17.84;12.72;98093.47;5075809;28;20031;-83
2021/03/21 05:56:54;;;;;;;7.95;2.97;;;;;;;18.26;12.41;98086.41;5090413;28;20035;-83
2021/03/21 05:59:38;;;;;;;5.68;2.42;;;;;;;18.51;12.43;98081.69;5081159;28;20040;-83
2021/03/21 06:02:07;;;;;;;5.93;2.97;;;;;;;18.09;12.39;98082.41;5072859;28;20104;-83
2021/03/21 06:04:59;;;;;;;6.78;3.42;;;;;;;18.06;12.54;98082.41;5091737;28;20039;-82
2021/03/21 06:07:44;;;;;;;11.75;4.55;;;;;;;17.68;12.75;98079.13;5087861;28;20040;-84
2021/03/21 06:10:13;;;;;;;11.73;4.47;;;;;;;17.94;12.83;98069.69;5077320;28;20040;-84
2021/03/21 06:13:16;;;;;;;11.35;3.88;;;;;;;18.30;12.26;98073.28;5096283;28;20041;-84
2021/03/21 06:16:16;;;;;;;11.55;4.57;;;;;;;17.46;13.20;98073.81;5089689;28;20028;-83
2021/03/21 06:19:04;;;;;;;12.10;4.93;;;;;;;18.47;12.16;98067.78;5087914;28;20077;-81
2021/03/21 06:22:06;;;;;;;14.43;4.97;;;;;;;19.09;12.26;98062.56;5093723;28;20029;-81
2021/03/21 06:25:03;;;;;;;9.75;4.40;;;;;;;18.23;12.65;98062.97;5102103;28;20043;-86
2021/03/21 06:27:48;;;;;;;7.22;3.08;;;;;;;18.59;12.63;98049.94;5099562;28;20103;-83
2021/03/21 06:30:36;;;;;;;6.45;2.80;;;;;;;18.55;12.92;98055.47;5100166;28;20032;-85
2021/03/21 06:33:11;;;;;;;10.13;4.40;;;;;;;18.32;12.24;98043.91;5088207;28;20522;-82
2021/03/21 06:36:05;;;;;;;4.68;2.13;;;;;;;18.55;12.61;98038.78;5088428;28;20051;-81
2021/03/21 06:38:45;;;;;;;5.68;2.47;;;;;;;18.35;12.66;98029.25;5087986;28;20127;-82
2021/03/21 06:41:47;;;;;;;8.30;2.92;;;;;;;18.59;12.36;98028.47;5094071;28;20070;-83
2021/03/21 06:44:41;;;;;;;6.97;3.05;;;;;;;19.12;11.83;98027.56;5040565;28;20056;-83
2021/03/21 06:47:48;;;;;;;7.70;3.80;;;;;;;18.63;12.01;98012.59;5061030;28;20045;-81
2021/03/21 06:50:39;;;;;;;6.95;2.50;;;;;;;19.35;12.30;98007.63;5076380;28;20505;-81
2021/03/21 06:53:15;;;;;;;6.53;3.40;;;;;;;19.30;12.33;98004.06;5095924;28;20032;-85
2021/03/21 06:55:52;;;;;;;6.28;2.40;;;;;;;19.10;12.27;97997.38;5089192;28;20047;-85
2021/03/21 06:59:02;;;;;;;7.13;2.88;;;;;;;19.21;12.37;97991.75;5082343;28;20520;-84
2021/03/21 07:01:52;;;;;;;8.32;3.17;;;;;;;19.15;12.25;97985.84;5094697;28;20487;-81
2021/03/21 07:04:40;;;;;;;7.53;3.03;;;;;;;19.22;12.47;97996.13;5073280;28;20085;-82
2021/03/21 07:07:38;;;;;;;8.63;2.70;;;;;;;19.77;11.88;97991.50;5083692;28;20032;-82
2021/03/21 07:10:51;;;;;;;5.88;2.47;;;;;;;20.25;11.39;97999.19;5090771;28;20090;-83
2021/03/21 07:13:42;;;;;;;6.32;2.92;;;;;;;19.36;11.96;97990.53;5062561;28;20123;-85
2021/03/21 07:16:45;;;;;;;7.97;3.20;;;;;;;19.51;11.66;97975.34;5065119;28;20554;-85
2021/03/21 07:19:30;;;;;;;6.57;2.70;;;;;;;19.59;11.68;97979.69;5050439;28;20185;-84
2021/03/21 07:22:14;;;;;;;7.30;3.10;;;;;;;20.17;11.99;97981.69;5058847;28;20036;-84
2021/03/21 07:25:18;;;;;;;7.05;2.90;;;;;;;20.67;11.58;97977.31;5059691;28;20039;-84
2021/03/21 07:27:56;;;;;;;6.88;2.88;;;;;;;19.86;11.34;97972.34;5063664;28;20044;-84
2021/03/21 07:30:49;;;;;;;7.22;3.33;;;;;;;19.06;12.36;97979.09;5068396;28;20028;-84
2021/03/21 07:33:45;;;;;;;5.03;2.80;;;;;;;19.17;12.17;97963.16;5056806;28;20469;-84
2021/03/21 07:36:44;;;;;;;10.50;4.07;;;;;;;20.15;11.88;97963.78;5054436;28;20400;-85
2021/03/21 07:39:10;;;;;;;9.38;3.40;;;;;;;20.42;11.63;97962.78;5065026;28;20111;-85
2021/03/21 07:42:01;;;;;;;7.63;3.55;;;;;;;20.67;11.42;97971.72;5061181;28;20249;-85
2021/03/21 07:44:39;;;;;;;;;;;;;;;20.27;11.19;97958.53;5058082;28;20115;-84
2021/03/21 07:47:11;;;;;;;10.55;4.22;;;;;;;21.02;11.24;97953.00;5065575;28;19998;-84
2021/03/21 07:50:16;;;;;;;19.55;7.35;;;;;;;20.13;11.39;97967.00;5050915;28;20090;-86
2021/03/21 07:52:57;;;;;;;26.58;8.77;;;;;;;20.86;11.84;97950.81;5064204;28;20384;-84
2021/03/21 07:55:29;;;;;;;;;;;;;;;21.31;10.94;97948.69;5059259;28;20036;-85
2021/03/21 07:58:13;;;;;;;19.50;5.15;;;;;;;20.34;11.05;97947.34;5067756;28;20364;-85
2021/03/21 08:00:40;;;;;;;11.15;4.63;;;;;;;20.45;11.42;97938.84;5058222;28;20574;-86
2021/03/21 08:03:19;;;;;;;21.42;7.85;;;;;;;20.14;11.92;97945.50;5063465;28;20029;-84
2021/03/21 08:05:45;;;;;;;38.88;14.05;;;;;;;20.78;11.69;97929.75;5049623;28;20044;-84
2021/03/21 08:08:19;;;;;;;43.58;15.43;;;;;;;20.32;11.75;97940.59;5063904;28;20020;-84
2021/03/21 08:10:51;;;;;;;24.75;9.07;;;;;;;20.49;12.02;97925.69;5061697;28;20154;-84
2021/03/21 08:13:39;;;;;;;27.35;10.07;;;;;;;21.03;11.74;97921.06;5058908;28;20040;-85
2021/03/21 08:16:08;;;;;;;23.67;7.68;;;;;;;21.26;11.50;97915.66;5059684;28;20040;-85
2021/03/21 08:18:36;;;;;;;28.40;9.50;;;;;;;21.54;11.13;97917.25;5066698;28;20078;-85
2021/03/21 08:21:07;;;;;;;25.02;8.63;;;;;;;22.28;10.85;97913.31;5074432;28;20520;-84
2021/03/21 08:23:36;;;;;;;;;;;;;;;22.60;10.33;97911.56;5057534;28;20025;-85
2021/03/21 08:26:05;;;;;;;16.77;6.53;;;;;;;22.27;10.76;97906.94;5062599;28;19963;-85
2021/03/21 08:28:35;;;;;;;25.90;9.63;;;;;;;22.16;10.95;97902.72;5063391;28;20033;-85
2021/03/21 08:31:07;;;;;;;29.92;10.50;;;;;;;21.84;10.80;97897.69;5061626;28;20067;-84
2021/03/21 08:33:40;;;;;;;16.38;6.75;;;;;;;22.32;11.37;97895.25;5057707;28;20036;-85
2021/03/21 08:36:23;;;;;;;22.88;9.20;;;;;;;22.34;10.90;97883.63;5057478;28;20079;-84
2021/03/21 08:39:14;;;;;;;17.30;7.55;;;;;;;22.25;10.95;97875.81;5057953;28;20060;-84
2021/03/21 08:41:52;;;;;;;23.80;9.48;;;;;;;22.65;10.74;97879.47;5059292;28;20033;-84
2021/03/21 08:44:36;;;;;;;13.10;6.38;;;;;;;22.85;9.89;97877.47;5056313;28;20040;-84
2021/03/21 08:47:03;;;;;;;12.10;4.90;;;;;;;22.97;10.22;97870.44;5054527;28;20124;-84
2021/03/21 08:49:38;;;;;;;55.22;26.98;;;;;;;22.32;10.53;97867.28;5061601;28;20029;-84
2021/03/21 08:52:05;;;;;;;30.25;15.40;;;;;;;22.97;10.57;97867.63;5053025;28;20044;-84
2021/03/21 08:54:37;;;;;;;14.25;7.10;;;;;;;22.39;10.44;97866.34;5064801;28;20021;-84
2021/03/21 08:57:07;;;;;;;21.35;10.48;;;;;;;23.13;10.54;97862.88;5065162;28;20037;-84
2021/03/21 08:59:42;;;;;;;22.25;9.77;;;;;;;23.15;10.41;97859.66;5060215;28;20087;-84
2021/03/21 09:02:14;;;;;;;19.77;9.25;;;;;;;22.38;9.92;97857.16;5060318;28;20064;-84
2021/03/21 09:05:02;;;;;;;16.20;7.47;;;;;;;21.60;10.31;97862.47;5062384;28;20043;-84
2021/03/21 09:07:31;;;;;;;10.98;4.65;;;;;;;21.92;11.37;97860.00;5059199;28;20037;-84
2021/03/21 09:10:26;;;;;;;15.65;7.35;;;;;;;21.89;10.46;97858.84;5061369;28;20707;-86
2021/03/21 09:13:11;;;;;;;12.02;5.05;;;;;;;21.82;11.61;97864.50;5061139;28;20064;-86
2021/03/21 09:15:43;;;;;;;15.90;6.43;;;;;;;22.28;10.81;97852.59;5054737;28;20396;-85
2021/03/21 09:18:18;;;;;;;10.45;5.00;;;;;;;22.77;10.96;97855.66;5055530;28;20037;-85
2021/03/21 09:20:50;;;;;;;17.65;6.50;;;;;;;22.28;10.33;97851.78;5062913;28;20025;-85
2021/03/21 09:23:37;;;;;;;9.00;3.15;;;;;;;22.90;10.81;97853.78;5061610;28;20071;-85
2021/03/21 09:26:11;;;;;;;6.78;2.95;;;;;;;22.76;10.70;97848.47;5057969;28;20036;-84
2021/03/21 09:28:42;;;;;;;12.10;6.00;;;;;;;23.44;10.25;97846.63;5058839;28;20111;-84
2021/03/21 09:31:11;;;;;;;10.50;5.07;;;;;;;23.14;10.62;97838.47;5066076;28;20044;-84
2021/03/21 09:33:49;;;;;;;7.30;2.92;;;;;;;23.22;11.28;97842.72;5060530;28;20055;-85
2021/03/21 09:36:21;;;;;;;10.48;4.55;;;;;;;23.16;11.01;97842.41;5063189;28;20107;-85
2021/03/21 09:38:56;;;;;;;13.27;4.90;;;;;;;23.36;10.62;97829.19;5056865;28;20067;-84
2021/03/21 09:41:23;;;;;;;6.30;3.38;;;;;;;23.57;10.36;97836.28;5057310;28;20037;-84
2021/03/21 09:43:51;;;;;;;8.63;3.25;;;;;;;22.96;10.62;97830.47;5068636;28;20029;-85
2021/03/21 09:46:41;;;;;;;10.40;4.35;;;;;;;23.62;10.70;97827.38;5056847;28;20043;-83
2021/03/21 09:49:37;;;;;;;7.25;3.63;;;;;;;23.04;10.37;97825.47;5059298;28;20024;-86
2021/03/21 09:52:12;;;;;;;6.93;2.70;;;;;;;22.83;10.99;97818.34;5053880;28;20036;-87
2021/03/21 09:55:00;;;;;;;2.95;1.45;;;;;;;21.28;12.31;97832.25;5059303;28;20493;-84
2021/03/21 09:57:44;;;;;;;5.72;2.65;;;;;;;20.54;12.19;97830.38;5055840;28;20032;-86
2021/03/21 10:00:27;;;;;;;3.67;1.83;;;;;;;19.92;12.80;97825.84;5066159;28;20541;-85
2021/03/21 10:03:09;;;;;;;3.80;1.83;;;;;;;19.36;13.30;97822.72;5061673;28;20055;-85
2021/03/21 10:05:55;;;;;;;4.85;2.50;;;;;;;19.89;14.06;97823.88;5057960;28;20108;-85
2021/03/21 10:08:44;;;;;;;5.78;2.50;;;;;;;21.11;12.89;97816.53;5058729;28;20088;-86
2021/03/21 10:11:15;;;;;;;4.45;1.90;;;;;;;22.31;11.90;97811.78;5062856;28;20123;-86
2021/03/21 10:13:45;;;;;;;5.07;2.55;;;;;;;22.12;12.26;97806.94;5075490;28;20111;-86
2021/03/21 10:16:26;;;;;;;5.05;2.20;;;;;;;22.77;11.81;97802.47;5081461;28;20107;-84
2021/03/21 10:18:54;;;;;;;4.07;1.63;;;;;;;22.66;12.65;97811.88;5079223;28;20147;-85
2021/03/21 10:21:23;;;;;;;4.38;2.00;;;;;;;22.32;12.18;97797.34;5078001;28;20407;-84
2021/03/21 10:23:49;;;;;;;2.85;1.40;;;;;;;22.01;13.36;97804.31;5080991;28;20039;-84
2021/03/21 10:26:18;;;;;;;3.53;1.88;;;;;;;21.91;12.87;97800.50;5073945;28;20055;-84
2021/03/21 10:28:57;;;;;;;4.57;1.60;;;;;;;22.45;12.70;97803.13;5084119;28;22375;-85
2021/03/21 10:31:24;;;;;;;3.30;1.90;;;;;;;22.78;12.54;97795.69;5079860;28;20484;-86
2021/03/21 10:33:52;;;;;;;3.20;2.17;;;;;;;23.46;11.58;97799.34;5077544;28;20078;-85
2021/03/21 10:36:37;;;;;;;4.97;1.98;;;;;;;23.40;11.63;97794.69;5075892;28;20090;-85
2021/03/21 10:39:09;;;;;;;3.75;1.88;;;;;;;23.64;12.22;97788.47;5069162;28;20028;-85
2021/03/21 10:41:52;;;;;;;3.97;2.15;;;;;;;23.25;11.89;97789.41;5079754;28;20443;-85
2021/03/21 10:44:20;;;;;;;3.42;2.10;;;;;;;23.25;12.06;97794.19;5077034;28;20043;-85
2021/03/21 10:46:53;;;;;;;3.38;1.92;;;;;;;23.28;12.02;97790.53;5076248;28;20047;-85
2021/03/21 10:49:47;;;;;;;4.55;2.20;;;;;;;23.06;12.35;97783.84;5081723;28;20044;-84
2021/03/21 10:52:22;;;;;;;4.15;2.20;;;;;;;20.71;13.70;97781.97;5084664;28;20083;-86
2021/03/21 10:54:48;;;;;;;4.63;2.72;;;;;;;20.26;14.65;97784.09;5065786;28;20050;-85
2021/03/21 10:57:42;;;;;;;4.32;2.03;;;;;;;19.26;15.32;97793.72;5090680;28;20422;-85
2021/03/21 11:00:16;;;;;;;5.95;2.00;;;;;;;18.26;16.87;97781.50;5079888;28;20392;-85
2021/03/21 11:02:47;;;;;;;5.03;1.77;;;;;;;19.02;17.33;97794.69;5087518;28;20055;-85
2021/03/21 11:05:39;;;;;;;4.40;1.98;;;;;;;20.07;15.96;97783.91;5080743;28;20071;-84
2021/03/21 11:08:17;;;;;;;4.15;2.00;;;;;;;19.86;16.37;97784.91;5066612;28;20043;-84
2021/03/21 11:10:47;;;;;;;4.05;2.15;;;;;;;20.15;16.63;97790.97;5081651;28;20040;-84
2021/03/21 11:13:17;;;;;;;4.55;2.72;;;;;;;20.84;15.94;97788.56;5077745;28;20452;-84
2021/03/21 11:15:46;;;;;;;5.18;2.38;;;;;;;20.43;15.89;97785.09;5070875;28;20037;-84
2021/03/21 11:18:28;;;;;;;5.18;2.45;;;;;;;20.37;16.03;97784.78;5083916;28;20074;-86
2021/03/21 11:21:03;;;;;;;4.82;2.03;;;;;;;19.73;17.01;97779.06;5074200;28;20582;-85
2021/03/21 11:23:34;;;;;;;7.53;3.10;;;;;;;20.08;16.93;97777.91;5084664;28;20035;-85
2021/03/21 11:26:00;;;;;;;;;;;;;;;19.11;18.18;97783.91;5089008;28;20036;-85
2021/03/21 11:28:39;;;;;;;5.60;2.78;;;;;;;18.49;18.70;97770.75;5083157;28;19920;-86
2021/03/21 11:31:08;;;;;;;7.65;2.10;;;;;;;19.29;18.47;97773.44;5082138;28;20055;-84
2021/03/21 11:33:38;;;;;;;3.97;2.30;;;;;;;18.88;19.24;97778.88;5069488;28;20024;-85
2021/03/21 11:36:26;;;;;;;4.90;2.95;;;;;;;19.21;18.59;97771.88;5084389;28;20055;-85
2021/03/21 11:38:53;;;;;;;4.88;2.45;;;;;;;20.50;17.52;97773.88;5054819;28;20608;-86
2021/03/21 11:41:24;;;;;;;5.45;2.42;;;;;;;20.69;17.10;97762.06;5073926;28;20524;-86
2021/03/21 11:43:51;;;;;;;5.50;2.22;;;;;;;20.53;17.68;97762.69;5075336;28;20029;-86
2021/03/21 11:46:31;;;;;;;8.70;3.72;;;;;;;21.24;17.22;97759.69;5075386;28;20040;-84
2021/03/21 11:48:59;;;;;;;6.35;2.20;;;;;;;21.40;17.28;97770.19;5076349;28;20031;-86
2021/03/21 11:51:27;;;;;;;4.35;2.28;;;;;;;21.85;16.62;97763.09;5065919;28;20029;-86
2021/03/21 11:53:54;;;;;;;4.30;2.35;;;;;;;21.48;17.16;97762.50;5094114;28;20032;-85
2021/03/21 11:56:29;;;;;;;6.15;2.45;;;;;;;21.56;17.21;97758.41;5087547;28;20074;-85
2021/03/21 11:59:12;;;;;;;4.35;1.95;;;;;;;21.51;16.83;97740.13;5067547;28;20043;-86
2021/03/21 12:01:44;;;;;;;4.78;2.45;;;;;;;21.74;16.78;97744.91;5084816;28;20036;-86
2021/03/21 12:04:23;;;;;;;4.95;2.30;;;;;;;22.36;16.56;97744.13;5083658;28;20066;-86
2021/03/21 12:06:52;;;;;;;5.90;2.85;;;;;;;22.27;16.13;97733.53;5080010;28;20040;-85
2021/03/21 12:09:33;;;;;;;5.70;2.80;;;;;;;22.19;16.18;97748.88;5070481;28;20067;-85
2021/03/21 12:12:24;;;;;;;5.63;3.17;;;;;;;22.23;16.65;97738.41;5082004;28;20044;-85
2021/03/21 12:14:50;;;;;;;13.27;3.25;;;;;;;22.34;16.49;97733.38;5065198;28;20516;-86
2021/03/21 12:17:37;;;;;;;8.65;2.97;;;;;;;22.08;16.70;97731.50;5080204;28;20097;-85